Time;durP1;ratioP1;P1;durP2;ratioP2;P2;SDS_P1;SDS_P2;PMS_P1;PMS_P2;Temp;Humidity;BMP_temperature;BMP_pressure;BME280_temperature;BME280_humidity;BME280_pressure;Samples;Min_cycle;Max_cycle;Signal;HPM_P1;HPM_P2
2022/04/09 00:02:13;;;;;;;15.75;1.65;;;4.10;99.90;;;;;;5018649;28;20039;-76
2022/04/09 00:04:40;;;;;;;14.17;1.93;;;4.00;99.90;;;;;;5021313;28;20476;-76
2022/04/09 00:07:07;;;;;;;12.23;2.20;;;4.10;99.90;;;;;;5024446;28;20036;-75
2022/04/09 00:09:33;;;;;;;14.73;2.07;;;4.10;99.90;;;;;;5046806;28;20012;-76
2022/04/09 00:12:00;;;;;;;14.63;1.57;;;4.10;99.90;;;;;;5024072;28;20032;-76
2022/04/09 00:14:26;;;;;;;13.80;1.30;;;4.10;99.90;;;;;;5045616;28;20039;-75
2022/04/09 00:16:53;;;;;;;16.83;2.57;;;4.20;99.90;;;;;;5028316;28;20036;-76
2022/04/09 00:19:19;;;;;;;19.37;1.70;;;4.20;99.90;;;;;;5027467;28;20032;-76
2022/04/09 00:21:46;;;;;;;11.60;1.10;;;4.30;99.90;;;;;;5020198;28;20035;-76
2022/04/09 00:24:13;;;;;;;9.23;1.00;;;4.20;99.90;;;;;;5037918;28;20041;-77
2022/04/09 00:26:40;;;;;;;12.03;1.70;;;4.20;99.90;;;;;;5028243;28;20028;-76
2022/04/09 00:29:07;;;;;;;14.37;1.30;;;4.20;99.90;;;;;;5031653;28;20028;-76
2022/04/09 00:31:33;;;;;;;13.93;1.50;;;4.20;99.90;;;;;;5046154;28;20292;-76
2022/04/09 00:34:00;;;;;;;8.97;1.37;;;4.10;99.90;;;;;;5042647;28;20032;-76
2022/04/09 00:36:26;;;;;;;7.70;1.45;;;4.10;99.90;;;;;;5051749;28;20028;-76
2022/04/09 00:38:53;;;;;;;8.93;1.23;;;4.10;99.90;;;;;;5043491;28;20021;-76
2022/04/09 00:41:19;;;;;;;19.85;1.52;;;4.10;99.90;;;;;;5045710;28;20020;-76
2022/04/09 00:43:46;;;;;;;15.23;1.30;;;4.10;99.90;;;;;;5025466;28;20517;-79
2022/04/09 00:46:13;;;;;;;11.43;1.70;;;4.20;99.90;;;;;;5045780;28;20032;-79
2022/04/09 00:48:42;;;;;;;12.03;1.00;;;4.30;99.90;;;;;;5047519;28;20043;-80
2022/04/09 00:51:08;;;;;;;17.60;1.57;;;4.30;99.90;;;;;;5065910;28;20028;-79
2022/04/09 00:53:37;;;;;;;18.37;1.30;;;4.40;99.90;;;;;;5045532;28;20028;-79
2022/04/09 00:56:13;;;;;;;13.37;1.23;;;4.30;99.90;;;;;;5063923;28;20048;-79
2022/04/09 00:58:47;;;;;;;13.10;1.43;;;4.30;99.90;;;;;;5064714;28;20027;-79
2022/04/09 01:01:14;;;;;;;9.95;1.20;;;4.20;99.90;;;;;;5063553;28;21332;-79
2022/04/09 01:03:41;;;;;;;9.47;1.47;;;4.10;99.90;;;;;;5028328;28;20036;-79
2022/04/09 01:06:08;;;;;;;15.37;1.20;;;4.10;99.90;;;;;;5045228;28;20387;-79
2022/04/09 01:08:34;;;;;;;9.73;1.00;;;4.00;99.90;;;;;;5046594;28;20036;-80
2022/04/09 01:11:01;;;;;;;8.97;0.90;;;4.00;99.90;;;;;;5044828;28;20548;-79
2022/04/09 01:13:29;;;;;;;16.83;1.50;;;3.90;99.90;;;;;;5026421;28;20040;-79
2022/04/09 01:15:56;;;;;;;9.63;0.90;;;3.90;99.90;;;;;;5031119;28;20028;-79
2022/04/09 01:18:23;;;;;;;12.27;1.27;;;3.90;99.90;;;;;;5031808;28;20046;-80
2022/04/09 01:21:01;;;;;;;7.97;1.20;;;3.80;99.90;;;;;;5033471;28;20032;-79
2022/04/09 01:23:31;;;;;;;8.77;1.43;;;3.80;99.90;;;;;;5077636;28;20032;-80
2022/04/09 01:26:07;;;;;;;10.37;1.27;;;3.80;99.90;;;;;;5045443;28;20044;-80
2022/04/09 01:28:43;;;;;;;10.47;1.10;;;3.80;99.90;;;;;;5065773;28;20395;-80
2022/04/09 01:31:10;;;;;;;15.87;1.20;;;3.70;99.90;;;;;;5030307;28;20039;-79
2022/04/09 01:33:36;;;;;;;9.60;1.10;;;3.70;99.90;;;;;;5032771;28;20048;-79
2022/04/09 01:36:09;;;;;;;12.27;1.63;;;3.70;99.90;;;;;;5013594;28;20044;-79
2022/04/09 01:38:36;;;;;;;11.43;1.10;;;3.60;99.90;;;;;;5063932;28;20052;-79
2022/04/09 01:41:07;;;;;;;9.37;0.80;;;3.70;99.90;;;;;;5047773;28;20030;-80
2022/04/09 01:43:42;;;;;;;11.37;2.10;;;3.70;99.90;;;;;;5026987;28;20372;-79
2022/04/09 01:46:10;;;;;;;9.07;1.10;;;3.70;99.90;;;;;;5014486;28;20040;-79
2022/04/09 01:48:41;;;;;;;11.53;1.03;;;3.60;99.90;;;;;;5031181;28;20048;-80
2022/04/09 01:51:08;;;;;;;8.57;0.70;;;3.60;99.90;;;;;;5028488;28;20070;-80
2022/04/09 01:53:45;;;;;;;11.13;1.00;;;3.60;99.90;;;;;;5060759;28;20035;-79
2022/04/09 01:56:11;;;;;;;20.43;2.23;;;3.60;99.90;;;;;;5061184;28;20527;-80
2022/04/09 01:58:41;;;;;;;8.37;1.23;;;3.60;99.90;;;;;;5047215;28;20043;-79
2022/04/09 02:01:18;;;;;;;15.83;1.60;;;3.60;99.90;;;;;;5064252;28;20036;-80
2022/04/09 02:03:46;;;;;;;9.70;0.80;;;3.70;99.90;;;;;;5062141;28;20032;-79
2022/04/09 02:06:12;;;;;;;11.43;1.00;;;3.60;99.90;;;;;;5062881;28;20028;-79
2022/04/09 02:08:39;;;;;;;12.63;1.17;;;3.70;99.90;;;;;;5047081;28;20387;-79
2022/04/09 02:11:07;;;;;;;10.37;1.73;;;3.70;99.90;;;;;;5029691;28;20040;-79
2022/04/09 02:13:36;;;;;;;11.53;1.57;;;3.60;99.90;;;;;;5077861;28;20036;-79
2022/04/09 02:16:04;;;;;;;8.67;1.13;;;3.70;99.90;;;;;;5028896;28;20047;-80
2022/04/09 02:18:34;;;;;;;10.53;0.83;;;3.70;99.90;;;;;;5046615;28;20040;-79
2022/04/09 02:21:07;;;;;;;7.93;1.13;;;3.70;99.90;;;;;;5062660;28;20028;-79
2022/04/09 02:23:33;;;;;;;8.80;1.17;;;3.70;99.90;;;;;;5058948;28;20514;-79
2022/04/09 02:26:01;;;;;;;13.93;1.03;;;3.80;99.90;;;;;;5028526;28;20459;-79
2022/04/09 02:28:32;;;;;;;12.83;1.00;;;3.80;99.90;;;;;;5031505;28;20036;-80
2022/04/09 02:30:59;;;;;;;9.27;1.47;;;3.80;99.90;;;;;;5062374;28;20044;-79
2022/04/09 02:33:36;;;;;;;11.47;1.27;;;3.80;99.90;;;;;;5028383;28;20700;-79
2022/04/09 02:36:05;;;;;;;10.20;0.93;;;3.90;99.90;;;;;;5042570;28;20052;-80
2022/04/09 02:38:38;;;;;;;9.07;0.70;;;3.90;99.90;;;;;;5029827;28;20021;-79
2022/04/09 02:41:08;;;;;;;18.07;1.43;;;4.00;99.90;;;;;;5061462;28;20047;-79
2022/04/09 02:43:37;;;;;;;14.27;1.48;;;4.00;99.90;;;;;;5057896;28;20051;-79
2022/04/09 02:46:07;;;;;;;9.57;1.10;;;4.00;99.90;;;;;;5042403;28;20077;-80
2022/04/09 02:48:39;;;;;;;8.10;1.47;;;4.00;99.90;;;;;;5046791;28;20360;-79
2022/04/09 02:51:07;;;;;;;8.23;0.90;;;4.00;99.90;;;;;;5044016;28;20394;-79
2022/04/09 02:53:35;;;;;;;10.27;0.80;;;4.00;99.90;;;;;;5057598;28;20028;-79
2022/04/09 02:56:03;;;;;;;4.23;0.50;;;4.10;99.90;;;;;;5043239;28;20036;-79
2022/04/09 02:58:34;;;;;;;5.97;0.98;;;4.00;99.90;;;;;;5045286;28;20047;-80
2022/04/09 03:01:00;;;;;;;9.77;0.80;;;4.00;99.90;;;;;;5028833;28;20359;-79
2022/04/09 03:03:29;;;;;;;6.90;0.60;;;4.00;99.90;;;;;;5039519;28;20020;-79
2022/04/09 03:05:57;;;;;;;7.83;0.80;;;3.90;99.90;;;;;;5026627;28;20037;-79
2022/04/09 03:08:28;;;;;;;6.77;0.90;;;3.90;99.90;;;;;;5061256;28;20035;-79
2022/04/09 03:10:54;;;;;;;8.60;1.00;;;3.90;99.90;;;;;;5012538;28;20038;-76
2022/04/09 03:13:22;;;;;;;12.70;0.90;;;3.90;99.90;;;;;;5038581;28;20047;-76
2022/04/09 03:15:51;;;;;;;9.00;1.20;;;3.90;99.90;;;;;;5026152;28;20043;-76
2022/04/09 03:18:19;;;;;;;7.23;0.60;;;3.90;99.90;;;;;;5059161;28;20059;-76
2022/04/09 03:20:46;;;;;;;6.37;0.50;;;3.80;99.90;;;;;;5044223;28;20032;-76
2022/04/09 03:23:15;;;;;;;4.90;0.50;;;3.90;99.90;;;;;;5056031;28;20028;-76
2022/04/09 03:25:55;;;;;;;6.70;0.50;;;3.80;99.90;;;;;;5059921;28;20066;-79
2022/04/09 03:28:27;;;;;;;4.83;0.60;;;3.80;99.90;;;;;;5030136;28;20040;-79
2022/04/09 03:30:54;;;;;;;8.10;0.53;;;3.80;99.90;;;;;;5044065;28;20028;-79
2022/04/09 03:33:21;;;;;;;4.83;0.73;;;3.80;99.90;;;;;;5011799;28;20050;-79
2022/04/09 03:35:54;;;;;;;10.20;0.70;;;3.70;99.90;;;;;;5043394;28;20043;-76
2022/04/09 03:38:24;;;;;;;8.43;1.17;;;3.70;99.90;;;;;;5012069;28;20020;-76
2022/04/09 03:40:54;;;;;;;9.73;0.97;;;3.70;99.90;;;;;;5042007;28;20051;-76
2022/04/09 03:43:26;;;;;;;8.63;1.03;;;3.70;99.90;;;;;;4991919;28;20047;-75
2022/04/09 03:45:52;;;;;;;6.67;0.70;;;3.70;99.90;;;;;;5023760;28;20025;-76
2022/04/09 03:48:19;;;;;;;9.20;0.70;;;3.80;99.90;;;;;;4994857;28;20032;-76
2022/04/09 03:50:46;;;;;;;9.97;0.90;;;3.90;99.90;;;;;;5008338;28;20028;-76
2022/04/09 03:53:19;;;;;;;7.23;0.60;;;3.90;99.90;;;;;;5025127;28;20051;-76
2022/04/09 03:55:48;;;;;;;6.10;0.60;;;3.90;99.90;;;;;;5026098;28;20126;-75
2022/04/09 03:58:16;;;;;;;12.23;0.90;;;3.80;99.90;;;;;;5026727;28;20016;-76
2022/04/09 04:00:43;;;;;;;3.47;0.43;;;3.90;99.90;;;;;;5026396;28;20039;-76
2022/04/09 04:03:10;;;;;;;6.77;1.40;;;3.90;99.90;;;;;;5020218;28;20028;-75
2022/04/09 04:05:37;;;;;;;8.10;0.67;;;4.00;99.90;;;;;;5042089;28;20480;-76
2022/04/09 04:08:05;;;;;;;7.57;0.50;;;4.00;99.90;;;;;;5011047;28;20094;-76
2022/04/09 04:10:35;;;;;;;6.37;0.63;;;4.10;99.90;;;;;;5041295;28;20387;-75
2022/04/09 04:13:11;;;;;;;3.73;0.50;;;4.00;99.90;;;;;;5007601;28;20103;-75
2022/04/09 04:15:38;;;;;;;8.27;0.63;;;4.00;99.90;;;;;;5041998;28;20360;-76
2022/04/09 04:18:06;;;;;;;5.70;0.90;;;3.90;99.90;;;;;;5023898;28;20031;-75
2022/04/09 04:20:40;;;;;;;6.30;0.70;;;3.80;99.90;;;;;;5039409;28;20043;-75
2022/04/09 04:23:08;;;;;;;8.83;0.50;;;3.70;99.90;;;;;;5038707;28;20040;-76
2022/04/09 04:25:35;;;;;;;9.90;0.80;;;3.70;99.90;;;;;;5042364;28;20036;-76
2022/04/09 04:28:04;;;;;;;6.30;0.40;;;3.70;99.90;;;;;;5030614;28;20039;-75
2022/04/09 04:30:31;;;;;;;12.70;1.70;;;3.70;99.90;;;;;;5040709;28;20036;-75
2022/04/09 04:32:57;;;;;;;5.77;0.67;;;3.80;99.90;;;;;;5005824;28;20035;-75
2022/04/09 04:35:33;;;;;;;8.33;1.00;;;3.80;99.90;;;;;;5012064;28;20020;-74
2022/04/09 04:38:00;;;;;;;6.40;0.73;;;3.80;99.90;;;;;;5025650;28;20032;-76
2022/04/09 04:40:28;;;;;;;9.13;1.50;;;3.90;99.90;;;;;;5027982;28;20038;-75
2022/04/09 04:43:00;;;;;;;9.90;1.60;;;3.90;99.90;;;;;;5006682;28;20024;-76
2022/04/09 04:45:29;;;;;;;7.27;1.20;;;3.90;99.90;;;;;;5041702;28;20023;-76
2022/04/09 04:48:00;;;;;;;7.68;0.88;;;3.80;99.90;;;;;;5025963;28;20032;-76
2022/04/09 04:50:30;;;;;;;6.77;1.30;;;3.70;99.90;;;;;;5029663;28;20059;-75
2022/04/09 04:52:59;;;;;;;14.07;3.97;;;3.70;99.90;;;;;;5009284;28;20390;-75
2022/04/09 04:55:35;;;;;;;7.57;1.43;;;3.60;99.90;;;;;;5030446;28;20032;-75
2022/04/09 04:58:02;;;;;;;;;;;3.50;99.90;;;;;;5062264;28;20040;-79
2022/04/09 05:00:41;;;;;;;7.13;1.03;;;3.50;99.90;;;;;;5063059;28;19931;-75
2022/04/09 05:03:12;;;;;;;5.80;0.83;;;3.50;99.90;;;;;;5011384;28;20040;-74
2022/04/09 05:05:50;;;;;;;10.53;1.53;;;3.50;99.90;;;;;;5043548;28;20028;-75
2022/04/09 05:08:18;;;;;;;8.13;0.93;;;3.50;99.90;;;;;;5003586;28;20041;-75
2022/04/09 05:10:44;;;;;;;7.93;1.10;;;3.50;99.90;;;;;;4981727;28;21184;-75
2022/04/09 05:13:13;;;;;;;6.70;0.67;;;3.50;99.90;;;;;;4994027;28;20037;-75
2022/04/09 05:15:39;;;;;;;10.93;0.90;;;3.60;99.90;;;;;;4981127;28;20029;-75
2022/04/09 05:18:06;;;;;;;8.87;0.60;;;3.70;99.90;;;;;;4998103;28;20045;-76
2022/04/09 05:20:35;;;;;;;6.73;0.60;;;3.80;99.90;;;;;;5003545;28;20037;-75
2022/04/09 05:23:05;;;;;;;4.60;0.40;;;3.80;99.90;;;;;;5007163;28;20025;-75
2022/04/09 05:25:32;;;;;;;8.07;0.77;;;3.90;99.90;;;;;;5017446;28;20049;-75
2022/04/09 05:28:05;;;;;;;8.33;0.90;;;3.90;99.90;;;;;;5003097;28;20017;-75
2022/04/09 05:30:46;;;;;;;5.23;0.50;;;4.00;99.90;;;;;;5010297;28;20025;-75
2022/04/09 05:33:14;;;;;;;8.63;0.80;;;4.00;99.90;;;;;;4998687;28;20401;-75
2022/04/09 05:35:49;;;;;;;6.10;0.60;;;4.10;99.90;;;;;;4999963;28;20129;-75
2022/04/09 05:38:16;;;;;;;10.17;0.73;;;4.10;99.90;;;;;;5032732;28;20043;-75
2022/04/09 05:40:43;;;;;;;7.10;0.60;;;4.20;99.90;;;;;;5009697;28;20040;-80
2022/04/09 05:43:18;;;;;;;8.93;0.70;;;4.30;99.90;;;;;;5005510;28;20755;-75
2022/04/09 05:45:47;;;;;;;6.50;0.67;;;4.50;99.90;;;;;;5010867;28;20055;-80
2022/04/09 05:48:16;;;;;;;9.93;0.70;;;4.60;99.90;;;;;;5018825;28;20036;-75
2022/04/09 05:50:47;;;;;;;5.63;0.40;;;4.70;99.90;;;;;;5062767;28;20110;-74
2022/04/09 05:53:15;;;;;;;7.30;0.50;;;4.70;99.90;;;;;;5027165;28;20123;-74
2022/04/09 05:55:42;;;;;;;10.17;0.70;;;4.70;99.90;;;;;;5031377;28;20475;-79
2022/04/09 05:58:09;;;;;;;12.13;1.30;;;4.70;99.90;;;;;;5033717;28;20047;-75
2022/04/09 06:00:39;;;;;;;7.60;0.60;;;4.80;99.90;;;;;;5048099;28;20047;-75
2022/04/09 06:03:25;;;;;;;4.83;0.63;;;4.80;99.90;;;;;;5017085;28;20023;-79
2022/04/09 06:05:54;;;;;;;5.30;0.80;;;4.80;99.90;;;;;;5064610;28;20047;-78
2022/04/09 06:08:35;;;;;;;5.33;0.60;;;4.90;99.90;;;;;;5017563;28;20037;-75
2022/04/09 06:11:11;;;;;;;8.03;0.60;;;5.00;99.90;;;;;;5045882;28;20031;-78
2022/04/09 06:13:38;;;;;;;8.80;0.63;;;5.20;99.90;;;;;;5047963;28;20028;-78
2022/04/09 06:16:08;;;;;;;10.50;0.57;;;5.40;99.90;;;;;;5047230;28;20020;-75
2022/04/09 06:18:41;;;;;;;11.43;1.00;;;5.70;99.90;;;;;;5044598;28;20035;-75
2022/04/09 06:21:09;;;;;;;8.57;0.98;;;6.00;99.90;;;;;;5011443;28;20035;-74
2022/04/09 06:23:36;;;;;;;7.33;0.90;;;6.30;99.90;;;;;;5038898;28;20035;-75
2022/04/09 06:26:02;;;;;;;11.68;0.90;;;6.70;99.90;;;;;;5021163;28;20040;-75
2022/04/09 06:28:34;;;;;;;9.57;1.17;;;6.80;99.90;;;;;;5028664;28;20029;-75
2022/04/09 06:31:00;;;;;;;7.80;0.90;;;6.80;99.90;;;;;;5027021;28;20016;-75
2022/04/09 06:33:27;;;;;;;8.57;0.93;;;6.70;99.90;;;;;;5021481;28;20020;-75
2022/04/09 06:35:59;;;;;;;6.75;0.50;;;6.70;99.90;;;;;;5041123;28;20039;-74
2022/04/09 06:38:29;;;;;;;8.50;0.57;;;6.80;99.90;;;;;;5000295;28;20028;-75
2022/04/09 06:40:57;;;;;;;6.57;0.63;;;7.00;99.90;;;;;;5046109;28;20471;-75
2022/04/09 06:43:31;;;;;;;6.18;0.63;;;7.00;99.90;;;;;;5038584;28;20023;-75
2022/04/09 06:46:09;;;;;;;4.57;0.50;;;7.10;99.90;;;;;;5027255;28;20032;-74
2022/04/09 06:48:54;;;;;;;3.97;0.52;;;7.30;99.90;;;;;;5045802;28;20016;-75
2022/04/09 06:51:32;;;;;;;3.00;0.40;;;7.50;99.90;;;;;;5031554;28;20020;-75
2022/04/09 06:54:20;;;;;;;4.65;0.50;;;7.60;99.90;;;;;;5014959;28;20034;-75
2022/04/09 06:56:47;;;;;;;6.97;0.70;;;7.80;99.90;;;;;;5029282;28;20024;-75
2022/04/09 06:59:15;;;;;;;4.45;0.50;;;7.80;99.90;;;;;;5027990;28;20059;-75
2022/04/09 07:01:42;;;;;;;5.80;0.70;;;7.90;99.90;;;;;;5040606;28;20032;-75
2022/04/09 07:04:08;;;;;;;10.80;0.95;;;7.90;99.90;;;;;;5011070;28;20020;-75
2022/04/09 07:06:34;;;;;;;5.72;0.60;;;8.10;99.90;;;;;;5040106;28;20024;-75
2022/04/09 07:09:01;;;;;;;5.07;0.70;;;8.20;99.90;;;;;;5025897;28;20016;-75
2022/04/09 07:11:27;;;;;;;11.82;1.40;;;8.30;99.90;;;;;;4994785;28;20032;-75
2022/04/09 07:13:54;;;;;;;5.30;0.70;;;8.50;99.90;;;;;;5038599;28;20475;-74
2022/04/09 07:16:21;;;;;;;8.70;0.73;;;8.60;99.90;;;;;;5024408;28;20012;-74
2022/04/09 07:18:47;;;;;;;9.48;0.93;;;8.70;99.90;;;;;;5027341;28;20028;-75
2022/04/09 07:21:14;;;;;;;5.78;0.80;;;8.80;99.90;;;;;;5041473;28;20028;-75
2022/04/09 07:23:40;;;;;;;8.20;1.27;;;8.80;99.90;;;;;;5055137;28;20478;-75
2022/04/09 07:26:07;;;;;;;10.43;1.05;;;8.90;99.90;;;;;;5028875;28;20051;-74
2022/04/09 07:28:33;;;;;;;6.85;0.60;;;8.90;99.90;;;;;;5061000;28;20025;-75
2022/04/09 07:30:59;;;;;;;3.65;0.60;;;9.00;99.90;;;;;;5026705;28;20028;-74
2022/04/09 07:33:26;;;;;;;7.35;0.90;;;9.10;99.90;;;;;;5021701;28;20379;-74
2022/04/09 07:35:53;;;;;;;10.55;0.70;;;9.20;99.90;;;;;;5026568;28;20506;-75
2022/04/09 07:38:20;;;;;;;9.05;0.90;;;9.40;99.90;;;;;;5021918;28;20036;-75
2022/04/09 07:40:46;;;;;;;8.80;0.93;;;9.60;99.90;;;;;;5043334;28;20025;-75
2022/04/09 07:43:13;;;;;;;8.35;0.70;;;9.70;99.90;;;;;;5007040;28;20024;-74
2022/04/09 07:45:39;;;;;;;9.30;1.38;;;9.80;99.90;;;;;;5026314;28;20032;-74
2022/04/09 07:48:06;;;;;;;7.88;0.65;;;10.00;99.90;;;;;;5026223;28;20337;-74
2022/04/09 07:50:33;;;;;;;3.47;0.50;;;10.20;99.90;;;;;;5026011;28;20467;-74
2022/04/09 07:53:00;;;;;;;4.88;0.40;;;10.30;99.90;;;;;;5039145;28;20480;-75
2022/04/09 07:55:29;;;;;;;2.80;0.30;;;10.20;99.90;;;;;;5026577;28;20475;-75
2022/04/09 07:57:55;;;;;;;1.92;0.40;;;10.00;99.90;;;;;;5026301;28;20051;-75
2022/04/09 08:00:24;;;;;;;1.95;0.22;;;9.80;99.90;;;;;;5058154;28;20344;-74
2022/04/09 08:02:51;;;;;;;2.65;0.30;;;9.60;99.90;;;;;;5054056;28;20371;-75
2022/04/09 08:05:21;;;;;;;2.10;0.40;;;9.40;99.90;;;;;;5040106;28;20027;-74
2022/04/09 08:07:49;;;;;;;2.20;0.38;;;9.40;99.90;;;;;;5056833;28;21562;-74
2022/04/09 08:10:16;;;;;;;5.70;0.32;;;9.40;99.90;;;;;;5057658;28;20036;-75
2022/04/09 08:12:45;;;;;;;5.32;0.40;;;9.40;99.90;;;;;;5038956;28;20039;-75
2022/04/09 08:15:11;;;;;;;3.30;0.50;;;9.50;99.90;;;;;;5024933;28;20024;-75
2022/04/09 08:17:40;;;;;;;5.75;0.45;;;9.70;99.90;;;;;;5025884;28;20361;-74
2022/04/09 08:20:08;;;;;;;8.30;1.55;;;9.90;99.90;;;;;;5040843;28;20031;-74
2022/04/09 08:22:34;;;;;;;6.13;0.80;;;9.90;99.90;;;;;;5038181;28;20020;-74
2022/04/09 08:25:02;;;;;;;5.05;0.50;;;9.90;99.90;;;;;;5025331;28;20048;-74
2022/04/09 08:27:29;;;;;;;3.13;0.60;;;9.90;99.90;;;;;;5043031;28;20958;-74
2022/04/09 08:29:55;;;;;;;6.03;1.20;;;9.80;99.90;;;;;;5030277;28;20040;-74
2022/04/09 08:32:25;;;;;;;5.25;0.85;;;9.90;99.90;;;;;;5043038;28;20032;-75
2022/04/09 08:34:53;;;;;;;7.28;0.55;;;10.00;99.90;;;;;;5028871;28;20394;-74
2022/04/09 08:37:22;;;;;;;4.95;0.40;;;10.20;99.90;;;;;;5063156;28;20487;-76
2022/04/09 08:39:50;;;;;;;3.50;0.77;;;10.40;99.90;;;;;;5047902;28;20474;-74
2022/04/09 08:42:17;;;;;;;4.55;0.73;;;10.50;99.90;;;;;;5059231;28;20457;-74
2022/04/09 08:44:43;;;;;;;3.58;0.40;;;10.70;99.90;;;;;;5030371;28;20020;-75
2022/04/09 08:47:13;;;;;;;4.30;0.35;;;10.80;99.90;;;;;;5047224;28;20044;-75
2022/04/09 08:49:45;;;;;;;3.20;0.20;;;10.90;99.90;;;;;;5047716;28;20019;-75
2022/04/09 08:52:12;;;;;;;5.90;0.80;;;10.60;99.90;;;;;;5058309;28;20355;-75
2022/04/09 08:54:40;;;;;;;4.18;1.08;;;10.20;99.90;;;;;;5029936;28;20118;-76
2022/04/09 08:57:08;;;;;;;3.45;0.82;;;9.90;99.90;;;;;;5030703;28;20640;-76
2022/04/09 08:59:35;;;;;;;2.83;0.43;;;9.60;99.90;;;;;;5049191;28;20351;-76
2022/04/09 09:02:02;;;;;;;5.13;0.32;;;9.60;99.90;;;;;;5031197;28;20036;-76
2022/04/09 09:04:28;;;;;;;5.80;0.80;;;9.60;99.90;;;;;;5032098;28;20475;-76
2022/04/09 09:06:55;;;;;;;4.30;0.50;;;9.60;99.90;;;;;;5027378;28;20039;-75
2022/04/09 09:09:30;;;;;;;3.55;0.50;;;9.80;99.90;;;;;;5029981;28;20459;-75
2022/04/09 09:12:00;;;;;;;6.75;0.50;;;10.00;99.90;;;;;;5025913;28;20039;-75
2022/04/09 09:14:29;;;;;;;5.28;0.45;;;10.30;99.90;;;;;;5012421;28;20039;-76
2022/04/09 09:17:00;;;;;;;6.43;0.60;;;10.50;99.90;;;;;;5044271;28;20028;-75
2022/04/09 09:19:59;;;;;;;4.28;0.60;;;10.80;99.90;;;;;;5046297;28;20043;-75
2022/04/09 09:22:40;;;;;;;7.32;0.63;;;11.00;99.90;;;;;;5023427;28;20503;-78
2022/04/09 09:25:10;;;;;;;5.43;0.75;;;11.10;99.90;;;;;;5085293;28;20040;-81
2022/04/09 09:27:37;;;;;;;5.43;0.60;;;11.10;99.90;;;;;;5032701;28;20024;-80
2022/04/09 09:30:05;;;;;;;5.15;0.88;;;11.20;99.90;;;;;;5064733;28;20032;-82
2022/04/09 09:32:32;;;;;;;5.30;0.77;;;11.30;99.90;;;;;;5064129;28;20513;-79
2022/04/09 09:35:02;;;;;;;6.80;0.95;;;11.40;99.90;;;;;;5032086;28;20036;-78
2022/04/09 09:37:30;;;;;;;4.43;0.50;;;11.50;99.90;;;;;;5064697;28;20052;-79
2022/04/09 09:39:59;;;;;;;7.53;0.50;;;11.50;99.90;;;;;;5043047;28;20012;-74
2022/04/09 09:42:34;;;;;;;6.30;0.70;;;11.60;99.90;;;;;;5049685;28;20032;-76
2022/04/09 09:45:01;;;;;;;7.55;1.55;;;11.80;99.90;;;;;;5046213;28;20016;-75
2022/04/09 09:47:27;;;;;;;6.15;0.65;;;12.00;99.90;;;;;;5044791;28;20471;-78
2022/04/09 09:49:56;;;;;;;7.57;0.45;;;11.90;99.90;;;;;;5044959;28;20047;-78
2022/04/09 09:52:42;;;;;;;7.13;0.60;;;11.70;99.90;;;;;;5058230;28;20046;-77
2022/04/09 09:55:13;;;;;;;5.07;0.50;;;11.50;99.90;;;;;;5060316;28;20394;-78
2022/04/09 09:57:41;;;;;;;5.20;0.90;;;11.20;99.90;;;;;;5080187;28;20044;-78
2022/04/09 10:00:11;;;;;;;6.80;0.60;;;11.00;99.90;;;;;;5045384;28;20020;-82
2022/04/09 10:02:39;;;;;;;7.63;0.60;;;10.50;99.90;;;;;;5024526;28;20032;-82
2022/04/09 10:05:13;;;;;;;5.03;0.50;;;9.90;99.90;;;;;;5060538;28;20024;-79
2022/04/09 10:07:42;;;;;;;4.47;0.30;;;9.00;99.90;;;;;;5030189;28;20044;-79
2022/04/09 10:10:08;;;;;;;1.85;0.30;;;8.00;99.90;;;;;;5044735;28;20058;-79
2022/04/09 10:12:40;;;;;;;5.72;0.50;;;7.20;99.90;;;;;;5077049;28;20039;-82
2022/04/09 10:15:07;;;;;;;6.03;0.80;;;6.80;99.90;;;;;;5043585;28;20066;-79
2022/04/09 10:17:34;;;;;;;6.03;0.30;;;6.70;99.90;;;;;;5061419;28;20111;-82
2022/04/09 10:20:06;;;;;;;1.63;0.20;;;6.70;99.90;;;;;;5042534;28;20051;-82
2022/04/09 10:22:36;;;;;;;1.70;0.20;;;6.70;99.90;;;;;;5039797;28;20035;-82
2022/04/09 10:25:07;;;;;;;2.35;0.25;;;6.70;99.90;;;;;;5060648;28;20024;-82
2022/04/09 10:27:35;;;;;;;4.37;0.30;;;6.60;99.90;;;;;;5045038;28;20032;-80
2022/04/09 10:30:03;;;;;;;3.90;0.40;;;6.60;99.90;;;;;;5059572;28;20028;-80
2022/04/09 10:32:51;;;;;;;2.92;0.30;;;6.60;99.90;;;;;;5076545;28;20036;-82
2022/04/09 10:35:38;;;;;;;2.85;0.28;;;6.60;99.90;;;;;;5029499;28;20032;-81
2022/04/09 10:38:08;;;;;;;2.33;0.25;;;6.90;99.90;;;;;;5046256;28;20040;-81
2022/04/09 10:40:39;;;;;;;2.63;0.30;;;7.50;99.90;;;;;;5079245;28;20020;-81
2022/04/09 10:43:06;;;;;;;2.60;0.30;;;7.80;99.90;;;;;;5059170;28;20027;-81
2022/04/09 10:45:52;;;;;;;3.40;0.30;;;8.10;99.90;;;;;;5028902;28;20379;-81
2022/04/09 10:48:29;;;;;;;3.45;0.30;;;8.50;99.90;;;;;;5063242;28;20054;-80
2022/04/09 10:51:11;;;;;;;2.05;0.30;;;9.00;99.90;;;;;;5061413;28;20387;-80
2022/04/09 10:53:43;;;;;;;4.70;0.43;;;9.50;99.90;;;;;;5058693;28;20395;-80
2022/04/09 10:56:26;;;;;;;3.67;0.30;;;9.90;99.90;;;;;;5046962;28;20282;-81
2022/04/09 10:59:12;;;;;;;7.78;0.45;;;9.80;99.90;;;;;;5044291;28;20679;-80
2022/04/09 11:01:51;;;;;;;4.30;0.40;;;9.50;99.90;;;;;;5077501;28;20024;-75
2022/04/09 11:07:22;;;;;;;4.72;0.32;;;9.30;99.90;;;;;;5080100;28;20117;-81
2022/04/09 11:10:03;;;;;;;4.50;0.40;;;9.80;99.90;;;;;;5062499;28;20032;-81
2022/04/09 11:12:43;;;;;;;3.70;0.47;;;10.00;99.90;;;;;;5027862;28;20028;-80
2022/04/09 11:15:10;;;;;;;3.45;0.30;;;10.10;99.90;;;;;;5062617;28;20031;-80
2022/04/09 11:17:40;;;;;;;5.38;0.40;;;10.20;99.90;;;;;;5065639;28;20039;-80
2022/04/09 11:20:14;;;;;;;2.70;0.40;;;10.00;99.90;;;;;;5081523;28;20024;-82
2022/04/09 11:22:43;;;;;;;2.25;0.30;;;9.60;99.90;;;;;;5046226;28;20399;-79
2022/04/09 11:25:19;;;;;;;2.60;0.30;;;9.00;99.90;;;;;;5082242;28;20039;-79
2022/04/09 11:27:46;;;;;;;5.00;0.50;;;8.50;99.90;;;;;;5064576;28;20028;-81
2022/04/09 11:30:13;;;;;;;3.63;0.30;;;8.00;99.90;;;;;;5045213;28;20063;-81
2022/04/09 11:32:40;;;;;;;1.73;0.30;;;7.70;99.90;;;;;;5045465;28;20044;-81
2022/04/09 11:35:12;;;;;;;2.38;0.30;;;7.60;99.90;;;;;;5034830;28;20032;-81
2022/04/09 11:37:41;;;;;;;2.20;0.20;;;7.50;99.90;;;;;;5064092;28;20039;-81
2022/04/09 11:40:09;;;;;;;2.28;0.30;;;7.60;99.90;;;;;;5082237;28;20032;-80
2022/04/09 11:42:43;;;;;;;2.25;0.30;;;7.70;99.90;;;;;;5047212;28;20498;-81
2022/04/09 11:45:21;;;;;;;5.35;0.40;;;7.80;99.90;;;;;;5032064;28;20039;-80
2022/04/09 11:47:52;;;;;;;1.20;0.20;;;8.00;99.90;;;;;;5082121;28;20032;-80
2022/04/09 11:50:20;;;;;;;4.18;0.32;;;8.20;99.90;;;;;;5063649;28;20051;-80
2022/04/09 11:52:50;;;;;;;3.70;0.65;;;8.70;99.90;;;;;;5061476;28;20029;-81
2022/04/09 11:55:17;;;;;;;4.35;0.45;;;9.40;99.90;;;;;;5063781;28;20044;-79
2022/04/09 11:57:53;;;;;;;6.15;0.35;;;10.10;99.90;;;;;;5064146;28;20039;-79
2022/04/09 12:00:27;;;;;;;3.72;0.57;;;11.00;99.90;;;;;;5046312;28;20020;-78
2022/04/09 12:02:54;;;;;;;2.30;0.52;;;11.90;99.90;;;;;;5063799;28;20021;-78
2022/04/09 12:05:20;;;;;;;5.68;0.85;;;12.60;99.90;;;;;;5067589;28;20028;-78
2022/04/09 12:07:48;;;;;;;5.05;0.70;;;13.20;99.90;;;;;;5065476;28;20024;-78
2022/04/09 12:10:25;;;;;;;3.35;0.60;;;13.70;99.90;;;;;;5065773;28;20063;-78
2022/04/09 12:13:08;;;;;;;4.38;0.50;;;14.30;99.90;;;;;;5081945;28;20057;-78
2022/04/09 12:15:35;;;;;;;6.95;0.60;;;14.20;99.90;;;;;;5068093;28;20410;-79
2022/04/09 12:18:06;;;;;;;5.30;0.60;;;13.60;99.90;;;;;;5068975;28;20510;-79
2022/04/09 12:20:44;;;;;;;5.43;0.57;;;12.50;99.90;;;;;;5067117;28;20051;-81
2022/04/09 12:23:10;;;;;;;2.85;0.40;;;11.20;99.90;;;;;;5065675;28;20047;-78
2022/04/09 12:25:40;;;;;;;2.67;0.40;;;9.80;99.90;;;;;;5051026;28;20040;-78
2022/04/09 12:28:23;;;;;;;3.75;0.50;;;8.80;99.90;;;;;;5052921;28;20467;-79
2022/04/09 12:30:53;;;;;;;2.28;0.20;;;8.10;99.90;;;;;;5032867;28;20028;-79
2022/04/09 12:33:20;;;;;;;2.45;0.40;;;7.60;99.90;;;;;;5066177;28;20036;-79
2022/04/09 12:35:47;;;;;;;3.63;0.40;;;7.20;99.90;;;;;;5048074;28;20031;-79
2022/04/09 12:38:37;;;;;;;2.10;0.10;;;6.90;99.90;;;;;;5006426;28;20044;-80
2022/04/09 12:41:06;;;;;;;4.03;0.30;;;6.90;99.90;;;;;;5039003;28;20382;-79
2022/04/09 12:43:36;;;;;;;3.10;0.30;;;7.00;99.90;;;;;;5049704;28;20032;-78
2022/04/09 12:46:12;;;;;;;2.95;0.30;;;7.70;99.90;;;;;;5051716;28;20016;-79
2022/04/09 12:48:41;;;;;;;7.57;0.50;;;9.00;99.90;;;;;;5066897;28;20040;-79
2022/04/09 12:51:08;;;;;;;3.67;0.20;;;9.70;99.90;;;;;;5065431;28;20047;-79
2022/04/09 12:53:35;;;;;;;1.60;0.20;;;9.60;99.90;;;;;;5066923;28;20016;-78
2022/04/09 12:56:06;;;;;;;3.25;0.47;;;9.30;99.90;;;;;;5064716;28;20036;-74
2022/04/09 12:58:32;;;;;;;5.50;0.40;;;8.90;99.90;;;;;;5046766;28;20024;-74
2022/04/09 13:00:59;;;;;;;1.92;0.35;;;8.50;99.90;;;;;;5047303;28;20039;-74
2022/04/09 13:03:26;;;;;;;1.95;0.30;;;8.20;99.90;;;;;;5061349;28;20475;-74
2022/04/09 13:05:52;;;;;;;3.55;0.40;;;8.00;99.90;;;;;;5078644;28;20588;-74
2022/04/09 13:08:19;;;;;;;4.78;0.52;;;8.00;99.90;;;;;;5047377;28;20016;-75
2022/04/09 13:10:46;;;;;;;4.80;0.40;;;8.50;99.90;;;;;;5062637;28;20031;-73